Orchard, TX (77464)

2:06 AM CST on February 01, 2015 (GMT -0600)
Weston Lakes | Change Station
CLOSE
Current Station
Personal Weather Station
Location: Fulshear, TX
Elevation: 108 ft
Nearby Weather Stations

Elev 108 ft 29.65 °N, 95.93 °W | Updated 11 minutes ago

Overcast
Overcast
64.2 °F
Feels Like 64.2 °F
N
0.0
Wind Variable Wind from SSE

Today
High -- | Low -- °F
--% Chance of Precip.
Yesterday
High -- | Low -- °F
Precip. -- in
7:13 AM 6:01 PM
Waxing Gibbous, 94% visible
Pressure 29.94 in
Visibility 7.0 miles
Clouds Mostly Cloudy 800 ft
Mostly Cloudy 2800 ft
Mostly Cloudy 6000 ft
Dew Point 64 °F
Humidity 98%
Rainfall 0.00 in
Snow Depth Not available.
UV 0 out of 12
Pollen 8.30 out of 12
Air Quality Not available.
Flu Activity Not available.
METAR KTME 010755Z AUTO 16008KT 7SM BKN008 BKN028 BKN060 17/17 A2994 RMK AO2

More Conditions Fewer Conditions

Pressure 29.94 in
Visibility 7.0 miles
Clouds Mostly Cloudy 800 ft
Mostly Cloudy 2800 ft
Mostly Cloudy 6000 ft
Dew Point 64 °F
Humidity 98%
Rainfall 0.00 in
Snow Depth Not available.
UV 0 out of 12
Pollen 8.30 out of 12
Air Quality Not available.
Flu Activity Not available.
METAR KTME 010755Z AUTO 16008KT 7SM BKN008 BKN028 BKN060 17/17 A2994 RMK AO2

More Conditions Fewer Conditions

10-Day Weather Forecast

Almanac

Astronomy

Feb. 01, 2015 Rise Set
Actual Time
Civil Twilight
Nautical Twilight
Astronomical Twilight
Moon
Length of Visible Light
Length of Day
Tomorrow will be .
, % of the Moon is Illuminated

Today's Extremes

State Highs State Lows

Community

WunderPhotos

Upload Photos

1,792,327 photos uploaded!

WunderBlogs® & News

Nearby

Air Quality

  Air Quality AQ Index Pollutant
Not available.

Snow Depth

Station Depth Elevation

Earthquake Activity

City Distance Mag. Time & Date
Minimum magnitude displayed is 2.5.

Coastal Water Temperatures

Place Temperature

Nearby Weather Stations